sensor_id;sensor_type;location;lat;lon;timestamp;P1;durP1;ratioP1;P2;durP2;ratioP2
71965;SDS011;59836;52.132;5.442;2023-02-04T00:01:57;9.07;;;1.65;;
71965;SDS011;59836;52.132;5.442;2023-02-04T00:04:24;8.68;;;1.33;;
71965;SDS011;59836;52.132;5.442;2023-02-04T00:06:50;8.05;;;1.88;;
71965;SDS011;59836;52.132;5.442;2023-02-04T00:09:22;6.83;;;1.00;;
71965;SDS011;59836;52.132;5.442;2023-02-04T00:11:48;10.35;;;2.15;;
71965;SDS011;59836;52.132;5.442;2023-02-04T00:14:14;12.45;;;2.35;;
71965;SDS011;59836;52.132;5.442;2023-02-04T00:16:41;10.15;;;1.92;;
71965;SDS011;59836;52.132;5.442;2023-02-04T00:19:07;15.07;;;2.47;;
71965;SDS011;59836;52.132;5.442;2023-02-04T00:21:39;9.77;;;1.50;;
71965;SDS011;59836;52.132;5.442;2023-02-04T00:24:16;9.75;;;1.52;;
71965;SDS011;59836;52.132;5.442;2023-02-04T00:26:43;12.77;;;1.70;;
71965;SDS011;59836;52.132;5.442;2023-02-04T00:29:09;14.68;;;2.35;;
71965;SDS011;59836;52.132;5.442;2023-02-04T00:31:47;8.60;;;1.30;;
71965;SDS011;59836;52.132;5.442;2023-02-04T00:34:13;7.17;;;1.37;;
71965;SDS011;59836;52.132;5.442;2023-02-04T00:36:40;9.90;;;1.67;;
71965;SDS011;59836;52.132;5.442;2023-02-04T00:39:06;9.23;;;1.63;;
71965;SDS011;59836;52.132;5.442;2023-02-04T00:41:33;7.10;;;1.13;;
71965;SDS011;59836;52.132;5.442;2023-02-04T00:44:00;13.20;;;1.40;;
71965;SDS011;59836;52.132;5.442;2023-02-04T00:51:46;12.93;;;1.58;;
71965;SDS011;59836;52.132;5.442;2023-02-04T00:54:15;10.60;;;2.40;;
71965;SDS011;59836;52.132;5.442;2023-02-04T00:56:42;13.35;;;1.98;;
71965;SDS011;59836;52.132;5.442;2023-02-04T00:59:11;13.73;;;1.50;;
71965;SDS011;59836;52.132;5.442;2023-02-04T01:01:37;10.38;;;1.95;;
71965;SDS011;59836;52.132;5.442;2023-02-04T01:04:04;13.93;;;1.90;;
71965;SDS011;59836;52.132;5.442;2023-02-04T01:06:35;10.43;;;2.03;;
71965;SDS011;59836;52.132;5.442;2023-02-04T01:09:02;14.23;;;1.95;;
71965;SDS011;59836;52.132;5.442;2023-02-04T01:11:31;8.57;;;0.97;;
71965;SDS011;59836;52.132;5.442;2023-02-04T01:13:58;11.07;;;1.58;;
71965;SDS011;59836;52.132;5.442;2023-02-04T01:16:25;15.75;;;1.50;;
71965;SDS011;59836;52.132;5.442;2023-02-04T01:18:51;9.63;;;1.13;;
71965;SDS011;59836;52.132;5.442;2023-02-04T01:21:22;11.65;;;1.95;;
71965;SDS011;59836;52.132;5.442;2023-02-04T01:23:49;9.63;;;1.70;;
71965;SDS011;59836;52.132;5.442;2023-02-04T01:26:16;15.88;;;1.85;;
71965;SDS011;59836;52.132;5.442;2023-02-04T01:28:43;12.90;;;1.98;;
71965;SDS011;59836;52.132;5.442;2023-02-04T01:31:11;15.65;;;1.83;;
71965;SDS011;59836;52.132;5.442;2023-02-04T01:33:38;9.25;;;1.60;;
71965;SDS011;59836;52.132;5.442;2023-02-04T01:36:05;5.10;;;1.23;;
71965;SDS011;59836;52.132;5.442;2023-02-04T01:38:31;10.10;;;1.85;;
71965;SDS011;59836;52.132;5.442;2023-02-04T01:40:58;8.95;;;1.50;;
71965;SDS011;59836;52.132;5.442;2023-02-04T01:43:25;12.75;;;1.77;;
71965;SDS011;59836;52.132;5.442;2023-02-04T01:45:52;12.52;;;1.70;;
71965;SDS011;59836;52.132;5.442;2023-02-04T01:48:20;14.03;;;1.80;;
71965;SDS011;59836;52.132;5.442;2023-02-04T01:50:52;11.80;;;1.65;;
71965;SDS011;59836;52.132;5.442;2023-02-04T01:53:21;14.50;;;2.70;;
71965;SDS011;59836;52.132;5.442;2023-02-04T01:55:52;14.10;;;2.08;;
71965;SDS011;59836;52.132;5.442;2023-02-04T01:58:18;10.63;;;1.67;;
71965;SDS011;59836;52.132;5.442;2023-02-04T02:00:45;11.30;;;1.60;;
71965;SDS011;59836;52.132;5.442;2023-02-04T02:03:11;11.43;;;1.98;;
71965;SDS011;59836;52.132;5.442;2023-02-04T02:05:39;11.13;;;1.92;;
71965;SDS011;59836;52.132;5.442;2023-02-04T02:08:10;10.23;;;2.13;;
71965;SDS011;59836;52.132;5.442;2023-02-04T02:10:38;14.43;;;1.65;;
71965;SDS011;59836;52.132;5.442;2023-02-04T02:13:08;13.57;;;1.83;;
71965;SDS011;59836;52.132;5.442;2023-02-04T02:15:48;12.85;;;1.95;;
71965;SDS011;59836;52.132;5.442;2023-02-04T02:18:15;14.25;;;2.45;;
71965;SDS011;59836;52.132;5.442;2023-02-04T02:20:42;8.40;;;1.60;;
71965;SDS011;59836;52.132;5.442;2023-02-04T02:26:01;10.80;;;1.70;;
71965;SDS011;59836;52.132;5.442;2023-02-04T02:28:27;10.63;;;1.70;;
71965;SDS011;59836;52.132;5.442;2023-02-04T02:30:54;12.45;;;1.92;;
71965;SDS011;59836;52.132;5.442;2023-02-04T02:33:20;13.80;;;2.03;;
71965;SDS011;59836;52.132;5.442;2023-02-04T02:35:58;13.60;;;1.60;;
71965;SDS011;59836;52.132;5.442;2023-02-04T02:38:42;10.40;;;1.90;;
71965;SDS011;59836;52.132;5.442;2023-02-04T02:41:09;12.30;;;1.60;;
71965;SDS011;59836;52.132;5.442;2023-02-04T02:43:35;16.55;;;2.05;;
71965;SDS011;59836;52.132;5.442;2023-02-04T02:46:03;12.10;;;1.98;;
71965;SDS011;59836;52.132;5.442;2023-02-04T02:48:30;12.38;;;2.47;;
71965;SDS011;59836;52.132;5.442;2023-02-04T02:50:56;17.80;;;2.20;;
71965;SDS011;59836;52.132;5.442;2023-02-04T02:56:14;9.77;;;1.80;;
71965;SDS011;59836;52.132;5.442;2023-02-04T02:58:42;10.80;;;2.25;;
71965;SDS011;59836;52.132;5.442;2023-02-04T03:01:14;11.43;;;1.60;;
71965;SDS011;59836;52.132;5.442;2023-02-04T03:03:49;12.23;;;1.90;;
71965;SDS011;59836;52.132;5.442;2023-02-04T03:06:21;11.00;;;2.58;;
71965;SDS011;59836;52.132;5.442;2023-02-04T03:08:52;11.55;;;2.00;;
71965;SDS011;59836;52.132;5.442;2023-02-04T03:11:22;8.68;;;1.85;;
71965;SDS011;59836;52.132;5.442;2023-02-04T03:13:49;12.27;;;1.75;;
71965;SDS011;59836;52.132;5.442;2023-02-04T03:21:33;20.85;;;2.20;;
71965;SDS011;59836;52.132;5.442;2023-02-04T03:24:02;16.77;;;1.63;;
71965;SDS011;59836;52.132;5.442;2023-02-04T03:26:29;11.63;;;2.03;;
71965;SDS011;59836;52.132;5.442;2023-02-04T03:28:55;12.40;;;2.00;;
71965;SDS011;59836;52.132;5.442;2023-02-04T03:31:28;17.35;;;1.92;;
71965;SDS011;59836;52.132;5.442;2023-02-04T03:33:54;11.90;;;2.10;;
71965;SDS011;59836;52.132;5.442;2023-02-04T03:36:21;12.95;;;1.92;;
71965;SDS011;59836;52.132;5.442;2023-02-04T03:38:48;18.48;;;2.22;;
71965;SDS011;59836;52.132;5.442;2023-02-04T03:41:21;11.47;;;1.97;;
71965;SDS011;59836;52.132;5.442;2023-02-04T03:43:47;9.88;;;1.88;;
71965;SDS011;59836;52.132;5.442;2023-02-04T03:46:22;12.90;;;2.25;;
71965;SDS011;59836;52.132;5.442;2023-02-04T03:48:52;15.85;;;2.10;;
71965;SDS011;59836;52.132;5.442;2023-02-04T03:51:30;12.25;;;2.83;;
71965;SDS011;59836;52.132;5.442;2023-02-04T03:56:35;10.45;;;1.80;;
71965;SDS011;59836;52.132;5.442;2023-02-04T04:02:21;9.50;;;1.65;;
71965;SDS011;59836;52.132;5.442;2023-02-04T04:04:49;15.40;;;2.97;;
71965;SDS011;59836;52.132;5.442;2023-02-04T04:07:15;12.00;;;2.30;;
71965;SDS011;59836;52.132;5.442;2023-02-04T04:09:42;9.40;;;1.67;;
71965;SDS011;59836;52.132;5.442;2023-02-04T04:12:15;10.98;;;1.60;;
71965;SDS011;59836;52.132;5.442;2023-02-04T04:14:55;7.97;;;1.90;;
71965;SDS011;59836;52.132;5.442;2023-02-04T04:17:29;10.50;;;1.83;;
71965;SDS011;59836;52.132;5.442;2023-02-04T04:19:56;13.60;;;1.60;;
71965;SDS011;59836;52.132;5.442;2023-02-04T04:22:23;16.65;;;2.20;;
71965;SDS011;59836;52.132;5.442;2023-02-04T04:27:31;14.38;;;2.17;;
71965;SDS011;59836;52.132;5.442;2023-02-04T04:35:27;15.75;;;2.22;;
71965;SDS011;59836;52.132;5.442;2023-02-04T04:37:53;13.38;;;1.83;;
71965;SDS011;59836;52.132;5.442;2023-02-04T04:40:20;12.13;;;2.42;;
71965;SDS011;59836;52.132;5.442;2023-02-04T04:42:56;13.50;;;2.78;;
71965;SDS011;59836;52.132;5.442;2023-02-04T04:48:27;8.57;;;1.63;;
71965;SDS011;59836;52.132;5.442;2023-02-04T04:50:57;12.93;;;2.88;;
71965;SDS011;59836;52.132;5.442;2023-02-04T04:53:28;12.57;;;1.95;;
71965;SDS011;59836;52.132;5.442;2023-02-04T04:56:05;11.05;;;2.58;;
71965;SDS011;59836;52.132;5.442;2023-02-04T04:58:31;15.07;;;1.93;;
71965;SDS011;59836;52.132;5.442;2023-02-04T05:00:58;12.75;;;2.03;;
71965;SDS011;59836;52.132;5.442;2023-02-04T05:03:41;9.45;;;1.52;;
71965;SDS011;59836;52.132;5.442;2023-02-04T05:06:07;16.23;;;1.98;;
71965;SDS011;59836;52.132;5.442;2023-02-04T05:08:36;13.35;;;2.90;;
71965;SDS011;59836;52.132;5.442;2023-02-04T05:11:02;7.93;;;1.63;;
71965;SDS011;59836;52.132;5.442;2023-02-04T05:16:21;13.63;;;1.98;;
71965;SDS011;59836;52.132;5.442;2023-02-04T05:18:48;10.05;;;1.65;;
71965;SDS011;59836;52.132;5.442;2023-02-04T05:21:16;12.05;;;2.10;;
71965;SDS011;59836;52.132;5.442;2023-02-04T05:23:43;9.17;;;1.63;;
71965;SDS011;59836;52.132;5.442;2023-02-04T05:26:09;10.40;;;1.98;;
71965;SDS011;59836;52.132;5.442;2023-02-04T05:28:51;17.67;;;1.92;;
71965;SDS011;59836;52.132;5.442;2023-02-04T05:31:19;8.40;;;1.70;;
71965;SDS011;59836;52.132;5.442;2023-02-04T05:33:45;8.18;;;2.13;;
71965;SDS011;59836;52.132;5.442;2023-02-04T05:36:12;11.33;;;1.87;;
71965;SDS011;59836;52.132;5.442;2023-02-04T05:38:38;10.50;;;2.00;;
71965;SDS011;59836;52.132;5.442;2023-02-04T05:44:25;9.35;;;1.80;;
71965;SDS011;59836;52.132;5.442;2023-02-04T05:46:52;11.45;;;2.42;;
71965;SDS011;59836;52.132;5.442;2023-02-04T05:52:28;11.50;;;2.17;;
71965;SDS011;59836;52.132;5.442;2023-02-04T05:55:09;13.50;;;2.22;;
71965;SDS011;59836;52.132;5.442;2023-02-04T05:57:37;12.43;;;1.77;;
71965;SDS011;59836;52.132;5.442;2023-02-04T06:00:05;5.75;;;1.80;;
71965;SDS011;59836;52.132;5.442;2023-02-04T06:02:40;10.47;;;2.17;;
71965;SDS011;59836;52.132;5.442;2023-02-04T06:05:20;13.00;;;1.88;;
71965;SDS011;59836;52.132;5.442;2023-02-04T06:07:48;11.70;;;2.60;;
71965;SDS011;59836;52.132;5.442;2023-02-04T06:10:24;11.32;;;1.48;;
71965;SDS011;59836;52.132;5.442;2023-02-04T06:12:51;12.75;;;2.00;;
71965;SDS011;59836;52.132;5.442;2023-02-04T06:15:17;13.03;;;2.53;;
71965;SDS011;59836;52.132;5.442;2023-02-04T06:17:50;8.23;;;1.80;;
71965;SDS011;59836;52.132;5.442;2023-02-04T06:20:18;12.55;;;2.40;;
71965;SDS011;59836;52.132;5.442;2023-02-04T06:22:45;9.88;;;2.20;;
71965;SDS011;59836;52.132;5.442;2023-02-04T06:25:14;16.27;;;3.03;;
71965;SDS011;59836;52.132;5.442;2023-02-04T06:27:44;14.47;;;1.87;;
71965;SDS011;59836;52.132;5.442;2023-02-04T06:32:57;17.15;;;3.00;;
71965;SDS011;59836;52.132;5.442;2023-02-04T06:35:30;12.32;;;3.47;;
71965;SDS011;59836;52.132;5.442;2023-02-04T06:38:03;10.20;;;1.67;;
71965;SDS011;59836;52.132;5.442;2023-02-04T06:40:35;12.93;;;1.83;;
71965;SDS011;59836;52.132;5.442;2023-02-04T06:43:03;8.60;;;1.73;;
71965;SDS011;59836;52.132;5.442;2023-02-04T06:45:29;11.50;;;2.58;;
71965;SDS011;59836;52.132;5.442;2023-02-04T06:47:56;15.48;;;2.30;;
71965;SDS011;59836;52.132;5.442;2023-02-04T06:50:29;16.83;;;2.78;;
71965;SDS011;59836;52.132;5.442;2023-02-04T06:52:56;16.03;;;2.90;;
71965;SDS011;59836;52.132;5.442;2023-02-04T06:55:23;13.80;;;2.45;;
71965;SDS011;59836;52.132;5.442;2023-02-04T06:57:49;7.78;;;2.05;;
71965;SDS011;59836;52.132;5.442;2023-02-04T07:00:17;12.10;;;2.20;;
71965;SDS011;59836;52.132;5.442;2023-02-04T07:02:43;16.85;;;2.65;;
71965;SDS011;59836;52.132;5.442;2023-02-04T07:05:11;14.60;;;2.43;;
71965;SDS011;59836;52.132;5.442;2023-02-04T07:07:37;11.82;;;2.10;;
71965;SDS011;59836;52.132;5.442;2023-02-04T07:10:04;11.48;;;2.42;;
71965;SDS011;59836;52.132;5.442;2023-02-04T07:12:30;14.73;;;2.50;;
71965;SDS011;59836;52.132;5.442;2023-02-04T07:14:57;15.45;;;3.17;;
71965;SDS011;59836;52.132;5.442;2023-02-04T07:19:55;18.20;;;2.97;;
71965;SDS011;59836;52.132;5.442;2023-02-04T07:22:21;11.10;;;2.50;;
71965;SDS011;59836;52.132;5.442;2023-02-04T07:24:56;13.77;;;2.33;;
71965;SDS011;59836;52.132;5.442;2023-02-04T07:29:54;14.83;;;1.67;;
71965;SDS011;59836;52.132;5.442;2023-02-04T07:32:20;14.20;;;2.17;;
71965;SDS011;59836;52.132;5.442;2023-02-04T07:34:48;10.80;;;2.35;;
71965;SDS011;59836;52.132;5.442;2023-02-04T07:37:16;13.00;;;2.78;;
71965;SDS011;59836;52.132;5.442;2023-02-04T07:39:50;10.38;;;2.22;;
71965;SDS011;59836;52.132;5.442;2023-02-04T07:42:16;9.70;;;2.10;;
71965;SDS011;59836;52.132;5.442;2023-02-04T07:44:43;10.13;;;2.20;;
71965;SDS011;59836;52.132;5.442;2023-02-04T07:47:09;12.05;;;2.65;;
71965;SDS011;59836;52.132;5.442;2023-02-04T07:52:23;15.18;;;3.47;;
71965;SDS011;59836;52.132;5.442;2023-02-04T07:54:51;12.37;;;2.70;;
71965;SDS011;59836;52.132;5.442;2023-02-04T07:57:18;16.13;;;2.72;;
71965;SDS011;59836;52.132;5.442;2023-02-04T08:06:04;13.23;;;3.58;;
71965;SDS011;59836;52.132;5.442;2023-02-04T08:11:27;16.02;;;2.90;;
71965;SDS011;59836;52.132;5.442;2023-02-04T08:13:54;20.13;;;3.65;;
71965;SDS011;59836;52.132;5.442;2023-02-04T08:16:20;18.90;;;3.60;;
71965;SDS011;59836;52.132;5.442;2023-02-04T08:18:51;13.80;;;2.85;;
71965;SDS011;59836;52.132;5.442;2023-02-04T08:24:11;12.70;;;2.47;;
71965;SDS011;59836;52.132;5.442;2023-02-04T08:26:39;14.55;;;2.92;;
71965;SDS011;59836;52.132;5.442;2023-02-04T08:29:08;11.88;;;3.15;;
71965;SDS011;59836;52.132;5.442;2023-02-04T08:31:53;17.80;;;3.42;;
71965;SDS011;59836;52.132;5.442;2023-02-04T08:34:20;15.93;;;3.03;;
71965;SDS011;59836;52.132;5.442;2023-02-04T08:36:46;16.13;;;3.25;;
71965;SDS011;59836;52.132;5.442;2023-02-04T08:39:13;15.43;;;4.30;;
71965;SDS011;59836;52.132;5.442;2023-02-04T08:47:20;16.30;;;3.97;;
71965;SDS011;59836;52.132;5.442;2023-02-04T08:49:46;20.85;;;4.00;;
71965;SDS011;59836;52.132;5.442;2023-02-04T08:52:19;17.15;;;3.65;;
71965;SDS011;59836;52.132;5.442;2023-02-04T08:54:45;15.20;;;3.63;;
71965;SDS011;59836;52.132;5.442;2023-02-04T08:57:12;14.20;;;3.58;;
71965;SDS011;59836;52.132;5.442;2023-02-04T08:59:39;11.63;;;3.60;;
71965;SDS011;59836;52.132;5.442;2023-02-04T09:02:08;15.65;;;3.25;;
71965;SDS011;59836;52.132;5.442;2023-02-04T09:04:35;15.50;;;3.35;;
71965;SDS011;59836;52.132;5.442;2023-02-04T09:07:04;11.38;;;3.92;;
71965;SDS011;59836;52.132;5.442;2023-02-04T09:09:35;11.88;;;3.72;;
71965;SDS011;59836;52.132;5.442;2023-02-04T09:12:02;15.90;;;3.23;;
71965;SDS011;59836;52.132;5.442;2023-02-04T09:14:28;23.00;;;3.20;;
71965;SDS011;59836;52.132;5.442;2023-02-04T09:16:55;14.60;;;3.72;;
71965;SDS011;59836;52.132;5.442;2023-02-04T09:19:21;17.20;;;3.65;;
71965;SDS011;59836;52.132;5.442;2023-02-04T09:21:51;18.30;;;3.15;;
71965;SDS011;59836;52.132;5.442;2023-02-04T09:24:18;15.13;;;3.10;;
71965;SDS011;59836;52.132;5.442;2023-02-04T09:26:45;14.48;;;3.00;;
71965;SDS011;59836;52.132;5.442;2023-02-04T09:29:11;15.60;;;3.65;;
71965;SDS011;59836;52.132;5.442;2023-02-04T09:34:23;18.63;;;3.35;;
71965;SDS011;59836;52.132;5.442;2023-02-04T09:36:49;13.17;;;3.30;;
71965;SDS011;59836;52.132;5.442;2023-02-04T09:39:16;14.85;;;3.10;;
71965;SDS011;59836;52.132;5.442;2023-02-04T09:41:42;11.93;;;3.22;;
71965;SDS011;59836;52.132;5.442;2023-02-04T09:44:12;14.23;;;3.53;;
71965;SDS011;59836;52.132;5.442;2023-02-04T09:46:46;15.13;;;3.72;;
71965;SDS011;59836;52.132;5.442;2023-02-04T09:49:15;15.73;;;3.70;;
71965;SDS011;59836;52.132;5.442;2023-02-04T09:51:44;15.98;;;4.20;;
71965;SDS011;59836;52.132;5.442;2023-02-04T09:54:16;13.55;;;3.47;;
71965;SDS011;59836;52.132;5.442;2023-02-04T09:56:46;19.45;;;3.83;;
71965;SDS011;59836;52.132;5.442;2023-02-04T09:59:17;20.38;;;3.10;;
71965;SDS011;59836;52.132;5.442;2023-02-04T10:02:02;21.93;;;2.77;;
71965;SDS011;59836;52.132;5.442;2023-02-04T10:04:40;12.82;;;2.70;;
71965;SDS011;59836;52.132;5.442;2023-02-04T10:07:07;15.55;;;4.13;;
71965;SDS011;59836;52.132;5.442;2023-02-04T10:09:37;22.42;;;3.25;;
71965;SDS011;59836;52.132;5.442;2023-02-04T10:12:11;16.65;;;3.00;;
71965;SDS011;59836;52.132;5.442;2023-02-04T10:14:38;15.23;;;2.33;;
71965;SDS011;59836;52.132;5.442;2023-02-04T10:17:06;18.98;;;2.55;;
71965;SDS011;59836;52.132;5.442;2023-02-04T10:19:40;20.25;;;2.72;;
71965;SDS011;59836;52.132;5.442;2023-02-04T10:22:09;12.02;;;2.90;;
71965;SDS011;59836;52.132;5.442;2023-02-04T10:24:42;9.68;;;2.25;;
71965;SDS011;59836;52.132;5.442;2023-02-04T10:27:09;22.73;;;2.70;;
71965;SDS011;59836;52.132;5.442;2023-02-04T10:29:36;18.45;;;2.50;;
71965;SDS011;59836;52.132;5.442;2023-02-04T10:32:05;18.27;;;2.30;;
71965;SDS011;59836;52.132;5.442;2023-02-04T10:34:37;12.77;;;2.35;;
71965;SDS011;59836;52.132;5.442;2023-02-04T10:37:13;15.13;;;2.80;;
71965;SDS011;59836;52.132;5.442;2023-02-04T10:39:45;18.13;;;2.43;;
71965;SDS011;59836;52.132;5.442;2023-02-04T10:42:18;13.75;;;2.13;;
71965;SDS011;59836;52.132;5.442;2023-02-04T10:44:47;26.10;;;2.38;;
71965;SDS011;59836;52.132;5.442;2023-02-04T10:47:27;22.88;;;2.83;;
71965;SDS011;59836;52.132;5.442;2023-02-04T10:50:18;15.13;;;2.28;;
71965;SDS011;59836;52.132;5.442;2023-02-04T10:52:53;14.93;;;2.07;;
71965;SDS011;59836;52.132;5.442;2023-02-04T10:55:43;16.45;;;2.55;;
71965;SDS011;59836;52.132;5.442;2023-02-04T10:58:12;20.00;;;2.30;;
71965;SDS011;59836;52.132;5.442;2023-02-04T11:00:46;12.52;;;2.40;;
71965;SDS011;59836;52.132;5.442;2023-02-04T11:03:21;19.58;;;2.20;;
71965;SDS011;59836;52.132;5.442;2023-02-04T11:05:49;22.10;;;2.47;;
71965;SDS011;59836;52.132;5.442;2023-02-04T11:10:45;19.10;;;2.38;;
71965;SDS011;59836;52.132;5.442;2023-02-04T11:13:20;12.15;;;1.80;;
71965;SDS011;59836;52.132;5.442;2023-02-04T11:15:49;20.17;;;2.20;;
71965;SDS011;59836;52.132;5.442;2023-02-04T11:20:47;15.27;;;2.42;;
71965;SDS011;59836;52.132;5.442;2023-02-04T11:26:04;22.10;;;2.10;;
71965;SDS011;59836;52.132;5.442;2023-02-04T12:48:06;13.25;;;3.53;;
71965;SDS011;59836;52.132;5.442;2023-02-04T12:53:20;15.88;;;2.28;;
71965;SDS011;59836;52.132;5.442;2023-02-04T12:55:46;16.08;;;2.72;;
71965;SDS011;59836;52.132;5.442;2023-02-04T13:00:50;11.70;;;1.73;;
71965;SDS011;59836;52.132;5.442;2023-02-04T13:03:17;15.98;;;2.20;;
71965;SDS011;59836;52.132;5.442;2023-02-04T13:05:44;10.75;;;1.65;;
71965;SDS011;59836;52.132;5.442;2023-02-04T13:08:10;11.73;;;2.30;;
71965;SDS011;59836;52.132;5.442;2023-02-04T13:10:37;17.50;;;2.33;;
71965;SDS011;59836;52.132;5.442;2023-02-04T13:13:03;10.15;;;1.92;;
71965;SDS011;59836;52.132;5.442;2023-02-04T13:15:30;13.10;;;2.05;;
71965;SDS011;59836;52.132;5.442;2023-02-04T13:18:08;16.02;;;2.75;;
71965;SDS011;59836;52.132;5.442;2023-02-04T13:20:35;13.95;;;2.22;;
71965;SDS011;59836;52.132;5.442;2023-02-04T13:23:02;13.77;;;2.00;;
71965;SDS011;59836;52.132;5.442;2023-02-04T13:25:42;15.80;;;2.90;;
71965;SDS011;59836;52.132;5.442;2023-02-04T13:28:10;13.77;;;2.00;;
71965;SDS011;59836;52.132;5.442;2023-02-04T13:30:42;15.52;;;1.90;;
71965;SDS011;59836;52.132;5.442;2023-02-04T13:33:10;13.10;;;1.88;;
71965;SDS011;59836;52.132;5.442;2023-02-04T13:35:54;11.57;;;2.10;;
71965;SDS011;59836;52.132;5.442;2023-02-04T13:38:21;19.58;;;2.38;;
71965;SDS011;59836;52.132;5.442;2023-02-04T13:40:48;11.77;;;1.95;;
71965;SDS011;59836;52.132;5.442;2023-02-04T13:43:14;17.08;;;2.17;;
71965;SDS011;59836;52.132;5.442;2023-02-04T13:45:41;14.38;;;2.63;;
71965;SDS011;59836;52.132;5.442;2023-02-04T13:48:13;18.90;;;2.13;;
71965;SDS011;59836;52.132;5.442;2023-02-04T13:56:12;14.63;;;2.78;;
71965;SDS011;59836;52.132;5.442;2023-02-04T13:58:39;17.70;;;2.17;;
71965;SDS011;59836;52.132;5.442;2023-02-04T14:01:09;15.67;;;2.00;;
71965;SDS011;59836;52.132;5.442;2023-02-04T14:06:19;15.10;;;2.13;;
71965;SDS011;59836;52.132;5.442;2023-02-04T14:08:46;14.35;;;2.20;;
71965;SDS011;59836;52.132;5.442;2023-02-04T14:14:16;10.90;;;1.63;;
71965;SDS011;59836;52.132;5.442;2023-02-04T14:16:58;11.18;;;2.67;;
71965;SDS011;59836;52.132;5.442;2023-02-04T14:19:25;16.80;;;2.92;;
71965;SDS011;59836;52.132;5.442;2023-02-04T14:21:52;23.55;;;2.75;;
71965;SDS011;59836;52.132;5.442;2023-02-04T14:24:19;18.98;;;2.10;;
71965;SDS011;59836;52.132;5.442;2023-02-04T14:26:46;20.93;;;2.77;;
71965;SDS011;59836;52.132;5.442;2023-02-04T14:29:30;14.35;;;2.17;;
71965;SDS011;59836;52.132;5.442;2023-02-04T14:35:11;10.18;;;1.98;;
71965;SDS011;59836;52.132;5.442;2023-02-04T14:37:38;13.98;;;2.17;;
71965;SDS011;59836;52.132;5.442;2023-02-04T14:40:05;13.83;;;1.70;;
71965;SDS011;59836;52.132;5.442;2023-02-04T14:42:33;13.90;;;1.98;;
71965;SDS011;59836;52.132;5.442;2023-02-04T14:45:05;24.08;;;8.60;;
71965;SDS011;59836;52.132;5.442;2023-02-04T14:47:33;23.10;;;5.30;;
71965;SDS011;59836;52.132;5.442;2023-02-04T14:50:01;15.88;;;2.92;;
71965;SDS011;59836;52.132;5.442;2023-02-04T14:52:28;14.37;;;2.27;;
71965;SDS011;59836;52.132;5.442;2023-02-04T14:57:54;10.52;;;2.67;;
71965;SDS011;59836;52.132;5.442;2023-02-04T15:00:20;10.40;;;1.92;;
71965;SDS011;59836;52.132;5.442;2023-02-04T15:02:47;14.52;;;2.20;;
71965;SDS011;59836;52.132;5.442;2023-02-04T15:05:13;9.67;;;2.17;;
71965;SDS011;59836;52.132;5.442;2023-02-04T15:07:40;17.60;;;2.80;;
71965;SDS011;59836;52.132;5.442;2023-02-04T15:10:07;13.75;;;2.90;;
71965;SDS011;59836;52.132;5.442;2023-02-04T15:12:36;18.27;;;2.65;;
71965;SDS011;59836;52.132;5.442;2023-02-04T15:15:03;11.98;;;3.05;;
71965;SDS011;59836;52.132;5.442;2023-02-04T15:17:30;11.07;;;2.07;;
71965;SDS011;59836;52.132;5.442;2023-02-04T15:19:57;12.15;;;2.30;;
71965;SDS011;59836;52.132;5.442;2023-02-04T15:22:29;16.40;;;3.10;;
71965;SDS011;59836;52.132;5.442;2023-02-04T15:24:56;15.00;;;2.53;;
71965;SDS011;59836;52.132;5.442;2023-02-04T15:27:22;14.32;;;2.63;;
71965;SDS011;59836;52.132;5.442;2023-02-04T15:29:49;14.30;;;2.63;;
71965;SDS011;59836;52.132;5.442;2023-02-04T15:32:34;19.50;;;2.83;;
71965;SDS011;59836;52.132;5.442;2023-02-04T15:35:01;14.43;;;2.83;;
71965;SDS011;59836;52.132;5.442;2023-02-04T15:37:27;14.63;;;2.65;;
71965;SDS011;59836;52.132;5.442;2023-02-04T15:39:53;16.02;;;3.22;;
71965;SDS011;59836;52.132;5.442;2023-02-04T15:42:22;12.03;;;2.37;;
71965;SDS011;59836;52.132;5.442;2023-02-04T15:44:48;17.40;;;3.15;;
71965;SDS011;59836;52.132;5.442;2023-02-04T15:47:15;20.00;;;3.13;;
71965;SDS011;59836;52.132;5.442;2023-02-04T15:49:41;15.20;;;2.70;;
71965;SDS011;59836;52.132;5.442;2023-02-04T15:52:07;17.42;;;3.58;;
71965;SDS011;59836;52.132;5.442;2023-02-04T15:54:48;15.63;;;3.20;;
71965;SDS011;59836;52.132;5.442;2023-02-04T15:57:14;13.27;;;2.95;;
71965;SDS011;59836;52.132;5.442;2023-02-04T15:59:41;12.75;;;2.58;;
71965;SDS011;59836;52.132;5.442;2023-02-04T16:02:08;12.82;;;2.40;;
71965;SDS011;59836;52.132;5.442;2023-02-04T16:04:36;20.67;;;3.85;;
71965;SDS011;59836;52.132;5.442;2023-02-04T16:07:02;13.73;;;3.10;;
71965;SDS011;59836;52.132;5.442;2023-02-04T16:09:33;16.48;;;3.65;;
71965;SDS011;59836;52.132;5.442;2023-02-04T16:12:00;18.15;;;2.60;;
71965;SDS011;59836;52.132;5.442;2023-02-04T16:14:27;14.15;;;2.58;;
71965;SDS011;59836;52.132;5.442;2023-02-04T16:16:53;12.38;;;3.03;;
71965;SDS011;59836;52.132;5.442;2023-02-04T16:19:19;13.83;;;3.63;;
71965;SDS011;59836;52.132;5.442;2023-02-04T16:21:46;18.20;;;3.50;;
71965;SDS011;59836;52.132;5.442;2023-02-04T16:24:12;16.05;;;3.90;;
71965;SDS011;59836;52.132;5.442;2023-02-04T16:26:41;16.20;;;3.72;;
71965;SDS011;59836;52.132;5.442;2023-02-04T16:29:07;20.33;;;5.72;;
71965;SDS011;59836;52.132;5.442;2023-02-04T16:31:34;13.37;;;5.90;;
71965;SDS011;59836;52.132;5.442;2023-02-04T16:34:00;18.20;;;4.85;;
71965;SDS011;59836;52.132;5.442;2023-02-04T16:36:26;14.07;;;4.35;;
71965;SDS011;59836;52.132;5.442;2023-02-04T16:38:53;15.45;;;4.57;;
71965;SDS011;59836;52.132;5.442;2023-02-04T16:41:19;16.58;;;4.38;;
71965;SDS011;59836;52.132;5.442;2023-02-04T16:43:46;14.90;;;3.53;;
71965;SDS011;59836;52.132;5.442;2023-02-04T16:46:12;16.55;;;3.60;;
71965;SDS011;59836;52.132;5.442;2023-02-04T16:48:41;14.77;;;4.22;;
71965;SDS011;59836;52.132;5.442;2023-02-04T16:51:07;14.07;;;4.00;;
71965;SDS011;59836;52.132;5.442;2023-02-04T16:53:36;14.82;;;3.95;;
71965;SDS011;59836;52.132;5.442;2023-02-04T16:56:03;11.80;;;3.00;;
71965;SDS011;59836;52.132;5.442;2023-02-04T16:58:29;7.93;;;3.00;;
71965;SDS011;59836;52.132;5.442;2023-02-04T17:01:04;20.23;;;4.43;;
71965;SDS011;59836;52.132;5.442;2023-02-04T17:03:31;18.17;;;5.70;;
71965;SDS011;59836;52.132;5.442;2023-02-04T17:05:57;9.57;;;3.88;;
71965;SDS011;59836;52.132;5.442;2023-02-04T17:08:24;17.10;;;4.07;;
71965;SDS011;59836;52.132;5.442;2023-02-04T17:10:50;12.45;;;4.10;;
71965;SDS011;59836;52.132;5.442;2023-02-04T17:13:36;14.57;;;5.70;;
71965;SDS011;59836;52.132;5.442;2023-02-04T17:16:02;11.95;;;4.35;;
71965;SDS011;59836;52.132;5.442;2023-02-04T17:18:29;15.35;;;5.65;;
71965;SDS011;59836;52.132;5.442;2023-02-04T17:20:56;17.47;;;6.20;;
71965;SDS011;59836;52.132;5.442;2023-02-04T17:23:24;15.85;;;6.53;;
71965;SDS011;59836;52.132;5.442;2023-02-04T17:25:52;16.02;;;6.65;;
71965;SDS011;59836;52.132;5.442;2023-02-04T17:28:18;16.27;;;5.47;;
71965;SDS011;59836;52.132;5.442;2023-02-04T17:30:44;14.50;;;5.25;;
71965;SDS011;59836;52.132;5.442;2023-02-04T17:33:11;13.00;;;4.10;;
71965;SDS011;59836;52.132;5.442;2023-02-04T17:35:38;13.98;;;4.45;;
71965;SDS011;59836;52.132;5.442;2023-02-04T17:38:04;12.25;;;5.22;;
71965;SDS011;59836;52.132;5.442;2023-02-04T17:40:31;14.82;;;5.38;;
71965;SDS011;59836;52.132;5.442;2023-02-04T17:42:57;14.32;;;5.70;;
71965;SDS011;59836;52.132;5.442;2023-02-04T17:45:24;16.23;;;5.27;;
71965;SDS011;59836;52.132;5.442;2023-02-04T17:47:50;12.25;;;3.90;;
71965;SDS011;59836;52.132;5.442;2023-02-04T17:50:17;14.18;;;5.05;;